Time;durP1;ratioP1;P1;durP2;ratioP2;P2;SDS_P1;SDS_P2;PMS_P1;PMS_P2;Temp;Humidity;BMP_temperature;BMP_pressure;BME280_temperature;BME280_humidity;BME280_pressure;Samples;Min_cycle;Max_cycle;Signal;HPM_P1;HPM_P2
2023/04/04 07:01:32;;;;;;;0.40;0.40;;;7.30;99.90;11.60;102799.00;;;;6256635;22;20185;-65
2023/04/04 07:04:38;;;;;;;0.10;0.10;;;8.20;99.90;13.30;102803.00;;;;6307730;22;20166;-66
2023/04/04 07:07:22;;;;;;;2.87;2.67;;;9.80;99.90;12.70;102785.00;;;;6282825;22;20179;-66
2023/04/04 07:09:48;;;;;;;0.40;0.40;;;10.00;99.90;12.10;102795.00;;;;6309562;22;20140;-66
2023/04/04 07:12:19;;;;;;;0.50;0.37;;;10.40;99.90;14.30;102779.00;;;;6282545;22;20150;-69
2023/04/04 07:15:12;;;;;;;0.20;0.20;;;11.00;99.90;13.50;102789.00;;;;6282153;22;20148;-70
2023/04/04 07:18:20;;;;;;;0.27;0.27;;;10.90;99.90;10.70;102818.00;;;;6256580;22;20267;-67
2023/04/04 07:21:07;;;;;;;0.60;0.60;;;10.00;99.90;11.30;102799.00;;;;6285118;22;20152;-67
2023/04/04 07:23:59;;;;;;;1.23;0.60;;;9.40;99.90;11.90;102759.00;;;;6285880;22;20192;-67
2023/04/04 07:26:47;;;;;;;0.40;0.40;;;9.80;99.90;12.00;102801.00;;;;6282186;22;20574;-69
2023/04/04 07:29:25;;;;;;;1.20;0.90;;;10.30;99.90;11.80;102786.00;;;;6288555;22;20865;-67
2023/04/04 07:31:53;;;;;;;0.10;0.10;;;9.60;99.90;13.60;102783.00;;;;6281019;22;20590;-67
2023/04/04 07:34:44;;;;;;;0.40;0.40;;;10.40;99.90;13.30;102781.00;;;;6280811;22;20170;-69
2023/04/04 07:37:13;;;;;;;0.30;0.30;;;11.00;99.90;13.40;102778.00;;;;6309111;22;20221;-69
2023/04/04 07:39:45;;;;;;;0.47;0.30;;;10.90;99.90;13.00;102787.00;;;;6281729;22;20183;-69
2023/04/04 07:42:29;;;;;;;0.60;0.60;;;11.10;99.90;11.10;102787.00;;;;6281951;22;20262;-69
2023/04/04 07:44:58;;;;;;;0.30;0.30;;;10.60;99.90;12.40;102795.00;;;;6281583;22;20141;-67
2023/04/04 07:47:31;;;;;;;0.63;0.60;;;10.00;99.90;11.40;102796.00;;;;6308739;22;20144;-69
2023/04/04 07:49:57;;;;;;;1.90;0.83;;;9.50;99.90;13.00;102728.00;;;;6256268;22;20191;-67
2023/04/04 07:52:41;;;;;;;0.10;0.10;;;10.00;99.90;12.90;102793.00;;;;6256126;22;20171;-70
2023/04/04 07:55:08;;;;;;;0.90;0.50;;;10.70;99.90;11.50;102787.00;;;;6281283;22;20146;-69
2023/04/04 07:57:57;;;;;;;0.50;0.50;;;9.80;99.90;13.30;102773.00;;;;6256038;22;20253;-68
2023/04/04 08:00:28;;;;;;;0.10;0.10;;;10.40;99.90;14.30;102779.00;;;;6250447;22;20632;-69
2023/04/04 08:03:16;;;;;;;0.20;0.20;;;11.00;99.90;13.20;102711.00;;;;6250626;22;20177;-70
2023/04/04 08:06:19;;;;;;;0.10;0.10;;;11.00;99.90;14.30;102759.00;;;;6250760;22;20468;-69
2023/04/04 08:08:48;;;;;;;0.10;0.10;;;11.30;99.90;13.60;102780.00;;;;6246760;22;20618;-69
2023/04/04 08:11:56;;;;;;;0.10;0.10;;;11.30;99.90;13.70;102762.00;;;;6248493;22;20517;-69
2023/04/04 08:14:47;;;;;;;0.60;0.60;;;11.90;99.90;11.20;102731.00;;;;6248281;22;20165;-69
2023/04/04 08:17:33;;;;;;;0.30;0.30;;;10.10;99.90;12.40;102785.00;;;;6273647;22;20152;-69
2023/04/04 08:20:37;;;;;;;0.60;0.60;;;10.10;99.90;13.30;102773.00;;;;6248419;22;20168;-69
2023/04/04 08:23:23;;;;;;;0.20;0.20;;;10.70;99.90;14.00;102778.00;;;;6274049;22;20180;-69
2023/04/04 08:29:38;;;;;;;0.10;0.10;;;11.00;99.90;14.40;102764.00;;;;6273634;22;20372;-68
2023/04/04 08:32:56;;;;;;;0.17;0.17;;;11.40;99.90;15.50;102764.00;;;;6273777;22;20169;-68
2023/04/04 08:36:02;;;;;;;0.73;0.73;;;12.20;99.90;14.90;102772.00;;;;6275802;22;20667;-73
2023/04/04 08:38:59;;;;;;;0.10;0.10;;;12.60;99.90;15.20;102767.00;;;;6275329;22;20167;-70
2023/04/04 08:42:04;;;;;;;0.20;0.20;;;12.60;99.90;15.90;102720.00;;;;6264913;22;20544;-70
2023/04/04 08:44:54;;;;;;;0.30;0.30;;;12.50;99.90;12.70;102789.00;;;;6273256;22;20193;-70
2023/04/04 08:47:45;;;;;;;0.20;0.20;;;11.70;99.90;12.80;102798.00;;;;6230313;22;20172;-70
2023/04/04 08:50:18;;;;;;;0.10;0.10;;;11.00;99.90;14.30;102792.00;;;;6153547;23;20164;-70
2023/04/04 08:52:48;;;;;;;0.47;0.40;;;11.10;99.90;14.00;102801.00;;;;6131454;23;20272;-70
2023/04/04 08:55:37;;;;;;;0.10;0.10;;;11.70;99.90;13.50;102799.00;;;;6179914;23;20249;-70
2023/04/04 08:59:00;;;;;;;0.30;0.30;;;11.30;99.90;13.00;102801.00;;;;6130567;23;20741;-70
2023/04/04 09:01:47;;;;;;;0.30;0.30;;;10.70;99.90;14.50;102784.00;;;;6210710;22;20243;-70
2023/04/04 09:04:30;;;;;;;0.20;0.20;;;11.60;99.90;13.50;102776.00;;;;6248015;22;20153;-70
2023/04/04 09:07:35;;;;;;;0.20;0.20;;;11.20;99.90;14.40;102776.00;;;;6273764;22;20217;-70
2023/04/04 09:10:29;;;;;;;0.70;0.70;;;11.80;99.90;13.50;102768.00;;;;6271882;22;20161;-70
2023/04/04 09:13:33;;;;;;;0.40;0.40;;;11.90;99.90;13.40;102780.00;;;;6273810;22;20559;-75
2023/04/04 09:16:37;;;;;;;0.93;0.93;;;11.50;99.90;12.30;102787.00;;;;6246562;22;20154;-71
2023/04/04 09:19:25;;;;;;;0.80;0.80;;;11.20;99.90;14.00;102745.00;;;;6275161;22;20139;-73
2023/04/04 09:22:44;;;;;;;0.33;0.33;;;11.40;99.90;14.30;102769.00;;;;6273079;22;20626;-73
2023/04/04 09:25:15;;;;;;;0.33;0.30;;;11.70;99.90;13.40;102764.00;;;;6274840;22;20183;-73
2023/04/04 09:28:12;;;;;;;1.03;0.93;;;11.30;99.90;14.40;102773.00;;;;6272505;22;20174;-73
2023/04/04 09:31:27;;;;;;;3.30;1.47;;;11.70;99.90;11.10;102793.00;;;;6272519;22;20190;-72
2023/04/04 09:33:57;;;;;;;0.10;0.10;;;10.60;99.90;13.40;102736.00;;;;6274837;22;20149;-73
2023/04/04 09:36:57;;;;;;;1.60;0.80;;;10.90;99.90;13.30;102798.00;;;;6273063;22;20185;-73
2023/04/04 09:39:42;;;;;;;0.47;0.47;;;11.20;99.90;13.70;102781.00;;;;6247779;22;20682;-73
2023/04/04 09:42:17;;;;;;;0.30;0.30;;;11.60;99.90;13.00;102784.00;;;;6273048;22;20309;-70
2023/04/04 09:44:44;;;;;;;0.20;0.20;;;10.90;99.90;13.60;102783.00;;;;6272626;22;20503;-73
2023/04/04 09:47:27;;;;;;;0.73;0.73;;;11.10;99.90;14.10;102779.00;;;;6272644;22;20646;-73
2023/04/04 09:50:24;;;;;;;0.80;0.60;;;11.50;99.90;12.60;102733.00;;;;6273281;22;20147;-76
2023/04/04 09:53:35;;;;;;;0.10;0.10;;;10.90;99.90;14.20;102772.00;;;;6264046;22;20887;-73
2023/04/04 09:56:07;;;;;;;0.43;0.30;;;11.20;99.90;13.10;102732.00;;;;6273202;22;20160;-73
2023/04/04 09:59:13;;;;;;;1.20;0.80;;;11.90;99.90;12.80;102780.00;;;;6246508;22;20170;-73
2023/04/04 10:02:15;;;;;;;0.90;0.87;;;11.00;99.90;13.90;102777.00;;;;6271845;22;20159;-74
2023/04/04 10:05:19;;;;;;;0.50;0.50;;;11.40;99.90;14.50;102717.00;;;;6273209;22;20200;-73
2023/04/04 10:09:08;;;;;;;0.50;0.50;;;11.60;99.90;14.50;102759.00;;;;6272617;22;20163;-74
2023/04/04 10:12:09;;;;;;;0.17;0.17;;;12.00;99.90;15.20;102690.00;;;;6155153;23;20162;-73
2023/04/04 10:15:15;;;;;;;0.20;0.20;;;12.30;99.90;14.30;102752.00;;;;6264962;22;20738;-73
2023/04/04 10:18:02;;;;;;;0.50;0.50;;;12.10;99.90;14.80;102695.00;;;;6272538;22;20509;-74
2023/04/04 10:34:11;;;;;;;1.40;1.00;;;11.10;99.90;13.50;102765.00;;;;5072759;27;21133;-71
2023/04/04 10:37:08;;;;;;;0.83;0.83;;;11.40;99.90;13.50;102754.00;;;;5069254;28;20200;-72
2023/04/04 10:40:27;;;;;;;0.13;0.13;;;11.80;99.90;14.30;102744.00;;;;5068352;28;20265;-71
2023/04/04 10:43:44;;;;;;;1.07;0.97;;;12.00;99.90;12.30;102761.00;;;;5037939;28;20210;-71
2023/04/04 10:46:51;;;;;;;0.47;0.47;;;11.50;99.90;13.40;102758.00;;;;5047111;28;20629;-71
2023/04/04 10:49:45;;;;;;;0.40;0.40;;;11.30;99.90;14.70;102738.00;;;;5023978;28;20549;-70
2023/04/04 10:52:48;;;;;;;0.40;0.40;;;12.10;99.90;16.50;102722.00;;;;5056995;28;20216;-70
2023/04/04 10:55:45;;;;;;;0.40;0.30;;;12.90;99.90;15.50;102719.00;;;;5056032;28;20263;-70
2023/04/04 10:58:36;;;;;;;0.93;0.67;;;13.10;99.90;16.20;102727.00;;;;5049400;28;20189;-70
2023/04/04 11:01:45;;;;;;;0.63;0.63;;;13.10;99.90;16.80;102721.00;;;;5060935;28;20515;-70
2023/04/04 11:04:46;;;;;;;0.20;0.20;;;13.50;99.90;16.20;102716.00;;;;5039755;28;20193;-70
2023/04/04 11:07:31;;;;;;;0.67;0.47;;;13.70;99.90;17.00;102717.00;;;;5028570;28;20262;-70
2023/04/04 11:10:15;;;;;;;0.67;0.67;;;13.90;99.90;15.20;102730.00;;;;5065965;28;20194;-70
2023/04/04 11:13:17;;;;;;;0.93;0.90;;;13.60;99.90;13.70;102752.00;;;;5039947;28;20246;-70
2023/04/04 11:16:00;;;;;;;0.70;0.70;;;12.60;99.90;12.90;102745.00;;;;5060621;28;20191;-70
2023/04/04 11:18:42;;;;;;;5.97;1.10;;;11.40;99.90;12.00;102748.00;;;;5063996;28;20198;-70
2023/04/04 11:21:26;;;;;;;0.30;0.30;;;11.20;99.90;13.10;102698.00;;;;5049743;28;20229;-70
2023/04/04 11:23:59;;;;;;;0.57;0.50;;;11.10;99.90;14.40;102678.00;;;;5060475;28;20191;-70
2023/04/04 11:26:29;;;;;;;0.23;0.23;;;11.50;99.90;15.70;102713.00;;;;5062412;28;20235;-71
2023/04/04 11:29:02;;;;;;;1.70;0.93;;;12.50;99.90;13.90;102716.00;;;;5047565;28;20637;-70
2023/04/04 11:31:52;;;;;;;1.03;0.87;;;11.90;99.90;12.70;102711.00;;;;5064479;28;20217;-70
2023/04/04 11:34:43;;;;;;;1.10;1.07;;;11.30;99.90;13.80;102704.00;;;;5047400;28;20262;-70
2023/04/04 11:37:23;;;;;;;0.60;0.40;;;11.50;99.90;14.20;102704.00;;;;5047750;28;20217;-70
2023/04/04 11:39:57;;;;;;;0.40;0.40;;;12.00;99.90;15.20;102695.00;;;;5066325;28;20193;-70
2023/04/04 11:42:37;;;;;;;0.60;0.60;;;12.10;99.90;13.90;102643.00;;;;5066619;28;20246;-70
2023/04/04 11:45:18;;;;;;;1.93;1.53;;;12.40;99.90;12.10;102698.00;;;;5054209;28;20216;-70
2023/04/04 11:47:49;;;;;;;1.83;1.20;;;11.40;99.90;14.50;102643.00;;;;5054945;28;20191;-70
2023/04/04 11:50:15;;;;;;;0.43;0.43;;;11.70;99.90;14.40;102689.00;;;;5039814;28;21119;-70
2023/04/04 11:52:42;;;;;;;0.33;0.33;;;11.60;99.90;15.80;102677.00;;;;5035808;28;20580;-71
2023/04/04 11:55:19;;;;;;;3.57;0.93;;;12.50;99.90;15.10;102676.00;;;;5053740;28;20238;-71
2023/04/04 11:57:54;;;;;;;0.57;0.57;;;12.40;99.90;14.10;102627.00;;;;5038077;28;20199;-71
2023/04/04 12:00:38;;;;;;;0.20;0.20;;;11.90;99.90;14.80;102680.00;;;;5052467;28;20270;-70
2023/04/04 12:03:25;;;;;;;2.10;1.60;;;12.00;99.90;13.30;102682.00;;;;5037083;28;20185;-70
2023/04/04 12:06:00;;;;;;;0.50;0.50;;;11.90;99.90;13.90;102683.00;;;;5035829;28;20215;-70
2023/04/04 12:08:50;;;;;;;1.80;1.40;;;11.60;99.90;13.10;102681.00;;;;5037381;28;20580;-70
2023/04/04 12:11:44;;;;;;;0.90;0.90;;;11.40;99.90;12.40;102686.00;;;;5037289;28;20203;-70
2023/04/04 12:14:32;;;;;;;0.37;0.37;;;11.00;99.90;14.10;102673.00;;;;5039331;28;20218;-68
2023/04/04 12:17:00;;;;;;;0.53;0.53;;;11.30;99.90;12.80;102682.00;;;;5042852;28;20194;-68
2023/04/04 12:19:44;;;;;;;0.10;0.10;;;11.20;99.90;14.50;102678.00;;;;5053869;28;20669;-68
2023/04/04 12:22:41;;;;;;;0.33;0.33;;;11.50;99.90;15.20;102662.00;;;;5053126;28;20311;-67
2023/04/04 12:25:56;;;;;;;0.43;0.43;;;12.00;99.90;15.00;102653.00;;;;5050739;28;20575;-67
2023/04/04 12:29:04;;;;;;;1.03;0.93;;;12.20;99.90;12.10;102652.00;;;;5039503;28;20187;-69
2023/04/04 12:32:20;;;;;;;0.70;0.70;;;11.70;99.90;13.70;102653.00;;;;5054807;28;20597;-67
2023/04/04 12:35:26;;;;;;;0.70;0.60;;;11.10;99.90;14.60;102651.00;;;;5041665;28;20718;-67
2023/04/04 12:38:39;;;;;;;0.70;0.70;;;11.70;99.90;13.60;102655.00;;;;5028126;28;20197;-68
2023/04/04 12:42:01;;;;;;;0.40;0.40;;;12.30;99.90;13.70;102646.00;;;;5025048;28;20653;-67
2023/04/04 12:45:48;;;;;;;0.10;0.10;;;11.30;99.90;14.80;102643.00;;;;5011989;28;20885;-67
2023/04/04 12:49:09;;;;;;;0.57;0.57;;;11.50;99.90;13.20;102652.00;;;;5006131;28;20196;-67
2023/04/04 12:52:37;;;;;;;1.33;1.10;;;11.40;99.90;13.50;102653.00;;;;5048141;28;20224;-67
2023/04/04 12:55:47;;;;;;;0.20;0.20;;;11.30;99.90;13.90;102584.00;;;;5030052;28;20255;-67
2023/04/04 13:02:26;;;;;;;3.70;1.33;;;11.10;99.90;14.50;102624.00;;;;5034532;28;20188;-67
2023/04/04 13:05:56;;;;;;;0.20;0.20;;;11.50;99.90;14.30;102614.00;;;;5029845;28;20189;-67
2023/04/04 13:09:00;;;;;;;0.20;0.20;;;12.20;99.90;14.40;102598.00;;;;5014957;28;20592;-67
2023/04/04 13:12:34;;;;;;;0.97;0.97;;;11.70;99.90;14.00;102602.00;;;;5046380;28;20211;-69
2023/04/04 13:15:53;;;;;;;3.70;1.57;;;11.30;99.90;12.20;102606.00;;;;5013954;28;20265;-69
2023/04/04 13:18:41;;;;;;;0.30;0.30;;;11.20;99.90;13.80;102600.00;;;;5032725;28;20704;-68
2023/04/04 13:21:16;;;;;;;0.93;0.50;;;10.90;99.90;12.80;102598.00;;;;5038053;28;20590;-68
2023/04/04 13:24:02;;;;;;;0.67;0.67;;;11.00;99.90;13.60;102595.00;;;;5047568;28;20207;-68
2023/04/04 13:27:21;;;;;;;0.70;0.70;;;11.00;99.90;14.00;102564.00;;;;5032820;28;20215;-68
2023/04/04 13:30:26;;;;;;;2.20;1.33;;;11.20;99.90;14.70;102572.00;;;;5031123;28;20448;-68
2023/04/04 13:33:48;;;;;;;0.30;0.30;;;11.80;99.90;15.10;102577.00;;;;5010378;28;20221;-68
2023/04/04 13:37:14;;;;;;;0.30;0.30;;;12.20;99.90;15.20;102565.00;;;;5026915;28;20626;-68
2023/04/04 13:40:33;;;;;;;0.20;0.20;;;12.40;99.90;14.90;102564.00;;;;5027510;28;20187;-68
2023/04/04 13:44:00;;;;;;;0.10;0.10;;;12.10;99.90;15.10;102574.00;;;;5030222;28;20196;-68
2023/04/04 13:46:51;;;;;;;1.13;1.03;;;12.20;99.90;14.50;102560.00;;;;5022142;28;20184;-68
2023/04/04 13:50:10;;;;;;;0.20;0.20;;;12.40;99.90;15.90;102552.00;;;;5033115;28;20184;-68
2023/04/04 13:53:31;;;;;;;0.23;0.23;;;12.40;99.90;15.40;102551.00;;;;5045059;28;20200;-68
2023/04/04 13:56:52;;;;;;;0.50;0.50;;;12.80;99.90;13.30;102566.00;;;;5019752;28;20210;-67
2023/04/04 13:59:45;;;;;;;0.83;0.83;;;11.70;99.90;13.40;102559.00;;;;5028148;28;20671;-68
2023/04/04 14:03:07;;;;;;;1.40;1.30;;;11.60;99.90;14.30;102546.00;;;;5048267;28;20230;-67
2023/04/04 14:06:31;;;;;;;0.40;0.40;;;11.50;99.90;13.60;102556.00;;;;5046029;28;20279;-67
2023/04/04 14:09:34;;;;;;;0.20;0.20;;;11.30;99.90;13.80;102548.00;;;;5047266;28;20591;-68
2023/04/04 14:13:00;;;;;;;0.10;0.10;;;11.70;99.90;15.10;102534.00;;;;5044663;28;20207;-68
2023/04/04 14:16:22;;;;;;;0.27;0.27;;;11.80;99.90;14.50;102534.00;;;;5032895;28;20187;-68
2023/04/04 14:19:40;;;;;;;1.17;0.93;;;12.20;99.90;13.80;102531.00;;;;5032707;28;20186;-68
2023/04/04 14:22:28;;;;;;;0.60;0.40;;;11.70;99.90;13.00;102540.00;;;;5047722;28;20191;-68
2023/04/04 14:25:17;;;;;;;2.37;1.13;;;11.50;99.90;14.80;102518.00;;;;5050423;28;20642;-68
2023/04/04 14:27:43;;;;;;;0.10;0.10;;;11.70;99.90;14.90;102527.00;;;;5048652;28;20198;-68
2023/04/04 14:30:09;;;;;;;1.30;1.30;;;11.80;99.90;15.70;102464.00;;;;5051044;28;20188;-68
2023/04/04 14:32:53;;;;;;;0.70;0.70;;;12.20;99.90;15.80;102518.00;;;;5034456;28;20574;-67
2023/04/04 14:35:39;;;;;;;0.50;0.50;;;12.50;99.90;14.80;102518.00;;;;5050683;28;20622;-68
2023/04/04 14:38:23;;;;;;;2.67;2.57;;;12.30;99.90;14.70;102509.00;;;;5049039;28;20192;-68
2023/04/04 14:40:56;;;;;;;0.20;0.20;;;12.10;99.90;14.50;102512.00;;;;5034456;28;20181;-67
2023/04/04 14:43:43;;;;;;;0.10;0.10;;;12.20;99.90;15.50;102508.00;;;;5034963;28;20195;-68
2023/04/04 14:46:32;;;;;;;0.40;0.40;;;12.50;99.90;15.40;102495.00;;;;5033674;28;20323;-68
2023/04/04 14:48:59;;;;;;;1.63;1.53;;;12.40;99.90;14.60;102459.00;;;;5047593;28;20189;-67
2023/04/04 14:51:43;;;;;;;5.13;4.67;;;12.50;99.90;13.30;102502.00;;;;5050561;28;20728;-67
2023/04/04 14:54:55;;;;;;;0.80;0.80;;;11.60;99.90;13.60;102473.00;;;;5051509;28;20207;-68
2023/04/04 14:57:23;;;;;;;1.43;0.40;;;11.50;99.90;13.20;102512.00;;;;5047434;28;21041;-68
2023/04/04 15:00:38;;;;;;;;;;;;;;;;;;;;;
2023/04/04 15:03:07;;;;;;;0.87;0.67;;;11.50;99.90;14.20;102505.00;;;;5045799;28;20185;-67
2023/04/04 15:05:57;;;;;;;1.23;1.23;;;11.70;99.90;15.10;102476.00;;;;5034387;28;20199;-68
2023/04/04 15:08:50;;;;;;;1.53;1.43;;;12.00;99.90;13.60;102506.00;;;;5033863;28;20548;-67
2023/04/04 15:11:26;;;;;;;0.23;0.23;;;11.80;99.90;14.60;102489.00;;;;5050145;28;20577;-68
2023/04/04 15:13:58;;;;;;;0.77;0.77;;;11.90;99.90;13.80;102487.00;;;;5049550;28;20238;-67
2023/04/04 15:16:34;;;;;;;0.30;0.30;;;11.90;99.90;14.60;102487.00;;;;5049787;28;20651;-68
2023/04/04 15:19:30;;;;;;;0.23;0.23;;;11.80;99.90;15.00;102481.00;;;;5049388;28;20568;-68
2023/04/04 15:22:22;;;;;;;0.23;0.23;;;11.80;99.90;15.40;102459.00;;;;5043373;28;20713;-68
2023/04/04 15:25:07;;;;;;;0.40;0.40;;;12.00;99.90;15.50;102459.00;;;;5039926;28;20539;-68
2023/04/04 15:28:01;;;;;;;0.53;0.53;;;12.30;99.90;14.00;102472.00;;;;5044956;28;20197;-68
2023/04/04 15:30:44;;;;;;;0.70;0.70;;;12.10;99.90;15.30;102466.00;;;;5032498;28;20188;-68
2023/04/04 15:33:48;;;;;;;0.10;0.10;;;12.20;99.90;14.40;102466.00;;;;5034479;28;20215;-68
2023/04/04 15:36:25;;;;;;;0.63;0.63;;;12.20;99.90;14.40;102463.00;;;;5033804;28;20200;-68
2023/04/04 15:39:30;;;;;;;3.43;1.03;;;12.00;99.90;15.30;102461.00;;;;5037921;28;20210;-68
2023/04/04 15:42:40;;;;;;;0.40;0.40;;;12.20;99.90;15.60;102445.00;;;;5055630;28;20185;-68
2023/04/04 15:45:46;;;;;;;0.50;0.50;;;12.40;99.90;15.20;102455.00;;;;5031676;28;20210;-68
2023/04/04 15:48:33;;;;;;;1.70;1.00;;;12.70;99.90;14.80;102452.00;;;;5050915;28;20520;-68
2023/04/04 15:51:20;;;;;;;0.50;0.50;;;12.30;99.90;15.00;102437.00;;;;5049059;28;20267;-67
2023/04/04 15:53:58;;;;;;;0.50;0.50;;;12.20;99.90;15.40;102436.00;;;;5050548;28;20470;-68
2023/04/04 15:56:47;;;;;;;1.40;1.37;;;12.40;99.90;14.10;102394.00;;;;5048263;28;20210;-68
2023/04/04 15:59:45;;;;;;;0.70;0.70;;;12.00;99.90;14.40;102452.00;;;;5030999;28;20182;-68
2023/04/04 16:02:37;;;;;;;0.40;0.40;;;12.10;99.90;14.20;102447.00;;;;5043898;28;20188;-68
2023/04/04 16:05:31;;;;;;;0.23;0.23;;;11.90;99.90;14.60;102432.00;;;;5041750;28;20187;-68
2023/04/04 16:08:25;;;;;;;0.80;0.80;;;12.20;99.90;14.40;102378.00;;;;5026162;28;20196;-68
2023/04/04 16:10:51;;;;;;;0.40;0.40;;;12.10;99.90;15.50;102425.00;;;;5020364;28;20546;-68
2023/04/04 16:13:46;;;;;;;0.70;0.67;;;12.30;99.90;15.80;102427.00;;;;5057844;28;20206;-68
2023/04/04 16:16:32;;;;;;;0.40;0.40;;;12.40;99.90;13.90;102377.00;;;;5040810;28;20185;-68
2023/04/04 16:19:16;;;;;;;0.93;0.87;;;12.20;99.90;14.20;102442.00;;;;5035510;28;20192;-67
2023/04/04 16:22:05;;;;;;;0.50;0.50;;;11.90;99.90;14.20;102397.00;;;;5053773;28;20193;-67
2023/04/04 16:24:39;;;;;;;0.63;0.63;;;11.90;99.90;14.50;102436.00;;;;5053789;28;20199;-68
2023/04/04 16:27:27;;;;;;;0.40;0.40;;;12.00;99.90;14.40;102427.00;;;;5036728;28;20189;-67
2023/04/04 16:30:15;;;;;;;0.37;0.37;;;11.90;99.90;14.60;102418.00;;;;5051584;28;20186;-68
2023/04/04 16:32:58;;;;;;;0.10;0.10;;;12.00;99.90;15.10;102422.00;;;;5036783;28;21142;-67
2023/04/04 16:35:41;;;;;;;0.67;0.67;;;12.10;99.90;14.50;102382.00;;;;5035941;28;20188;-68
2023/04/04 16:38:09;;;;;;;0.13;0.13;;;12.10;99.90;14.80;102430.00;;;;5038419;28;20188;-68
2023/04/04 16:41:03;;;;;;;0.47;0.47;;;11.90;99.90;14.80;102439.00;;;;5052491;28;20541;-68
2023/04/04 16:43:32;;;;;;;1.10;1.07;;;12.10;99.90;13.80;102443.00;;;;5053934;28;20211;-68
2023/04/04 16:46:15;;;;;;;0.70;0.43;;;11.70;99.90;13.10;102435.00;;;;5036636;28;20608;-67
2023/04/04 16:48:43;;;;;;;0.63;0.63;;;11.40;99.90;13.80;102433.00;;;;5052878;28;20198;-67
2023/04/04 16:51:14;;;;;;;0.30;0.30;;;11.30;99.90;14.00;102433.00;;;;5055023;28;20218;-67
2023/04/04 16:54:20;;;;;;;0.20;0.20;;;11.50;99.90;14.00;102390.00;;;;5052956;28;20197;-67
2023/04/04 16:57:06;;;;;;;0.30;0.30;;;11.50;99.90;13.30;102424.00;;;;5052954;28;20354;-67
2023/04/04 17:00:16;;;;;;;0.57;0.57;;;11.40;99.90;14.70;102433.00;;;;5036465;28;20183;-68
2023/04/04 17:03:16;;;;;;;2.00;1.10;;;11.50;99.90;13.70;102429.00;;;;5037567;28;20602;-68
2023/04/04 17:06:02;;;;;;;3.70;2.13;;;11.40;99.90;14.20;102433.00;;;;5052365;28;20228;-68
2023/04/04 17:08:36;;;;;;;0.60;0.57;;;11.50;99.90;13.30;102418.00;;;;5050485;28;20189;-67
2023/04/04 17:11:05;;;;;;;2.37;2.00;;;11.20;99.90;13.70;102413.00;;;;5053167;28;20277;-68
2023/04/04 17:13:51;;;;;;;0.17;0.17;;;11.20;99.90;14.70;102424.00;;;;5035990;28;20250;-68
2023/04/04 17:16:41;;;;;;;0.70;0.70;;;11.40;99.90;13.70;102437.00;;;;5035832;28;20674;-68
2023/04/04 17:19:19;;;;;;;0.37;0.37;;;11.40;99.90;13.10;102430.00;;;;5038050;28;20197;-68
2023/04/04 17:22:21;;;;;;;0.10;0.10;;;11.20;99.90;14.20;102411.00;;;;5052930;28;20194;-68
2023/04/04 17:25:27;;;;;;;0.23;0.23;;;11.30;99.90;14.10;102431.00;;;;5047149;28;20653;-68
2023/04/04 17:28:11;;;;;;;0.10;0.10;;;11.40;99.90;13.60;102434.00;;;;5035570;28;20705;-68
2023/04/04 17:31:00;;;;;;;0.20;0.20;;;11.30;99.90;13.70;102381.00;;;;5045572;28;20210;-68
2023/04/04 17:33:46;;;;;;;0.83;0.70;;;11.30;99.90;12.90;102449.00;;;;5049200;28;20217;-68
2023/04/04 17:36:38;;;;;;;0.33;0.33;;;11.00;99.90;13.70;102378.00;;;;5046028;28;20219;-68
2023/04/04 17:39:45;;;;;;;0.20;0.20;;;11.00;99.90;13.20;102434.00;;;;5045324;28;20182;-67
2023/04/04 17:42:48;;;;;;;0.50;0.50;;;11.10;99.90;13.30;102429.00;;;;5033064;28;20242;-67
2023/04/04 17:45:58;;;;;;;0.10;0.10;;;11.00;99.90;13.40;102429.00;;;;5033072;28;20197;-67
2023/04/04 17:48:47;;;;;;;0.20;0.20;;;10.90;99.90;12.80;102437.00;;;;5029210;28;20195;-67
2023/04/04 17:51:36;;;;;;;0.10;0.10;;;10.80;99.90;14.00;102392.00;;;;5031994;28;20597;-67
2023/04/04 17:54:21;;;;;;;0.37;0.37;;;10.90;99.90;14.00;102412.00;;;;5050158;28;20318;-66
2023/04/04 17:57:06;;;;;;;0.70;0.50;;;11.00;99.90;12.70;102433.00;;;;5035418;28;20344;-66
2023/04/04 17:59:53;;;;;;;0.63;0.63;;;10.80;99.90;12.20;102437.00;;;;5052153;28;20188;-65
2023/04/04 18:02:56;;;;;;;0.63;0.40;;;10.50;99.90;12.30;102436.00;;;;5038782;28;20213;-66
2023/04/04 18:05:43;;;;;;;0.30;0.30;;;10.30;99.90;12.50;102426.00;;;;5039188;28;20645;-66
2023/04/04 18:08:18;;;;;;;0.30;0.30;;;10.30;99.90;12.70;102432.00;;;;5041476;28;20195;-66
2023/04/04 18:11:06;;;;;;;0.20;0.20;;;10.30;99.90;12.90;102375.00;;;;5052242;28;20677;-66
2023/04/04 18:13:37;;;;;;;0.87;0.87;;;10.30;99.90;13.20;102422.00;;;;5036051;28;20291;-66
2023/04/04 18:16:21;;;;;;;0.20;0.20;;;10.40;99.90;13.90;102420.00;;;;5036572;28;20189;-66
2023/04/04 18:19:04;;;;;;;1.40;0.73;;;10.70;99.90;14.50;102421.00;;;;5038203;28;20187;-66
2023/04/04 18:21:51;;;;;;;0.30;0.30;;;11.00;99.90;14.10;102415.00;;;;5037773;28;20213;-66
2023/04/04 18:24:37;;;;;;;0.20;0.20;;;11.10;99.90;14.00;102421.00;;;;5052214;28;20187;-66
2023/04/04 18:27:33;;;;;;;0.50;0.50;;;10.90;99.90;13.10;102417.00;;;;5051919;28;20193;-66
2023/04/04 18:30:16;;;;;;;0.60;0.60;;;10.80;99.90;13.20;102426.00;;;;5053526;28;20247;-66
2023/04/04 18:33:06;;;;;;;0.10;0.10;;;10.60;99.90;13.40;102432.00;;;;5051997;28;20303;-66
2023/04/04 18:35:56;;;;;;;0.60;0.60;;;10.40;99.90;13.80;102437.00;;;;5051375;28;20191;-66
2023/04/04 18:38:54;;;;;;;0.10;0.10;;;10.50;99.90;12.80;102436.00;;;;5035048;28;20197;-66
2023/04/04 18:41:58;;;;;;;0.10;0.10;;;10.40;99.90;12.40;102426.00;;;;5047843;28;20867;-66
2023/04/04 18:45:19;;;;;;;0.10;0.10;;;10.20;99.90;12.80;102440.00;;;;5035235;28;20186;-66
2023/04/04 18:48:08;;;;;;;0.10;0.10;;;9.90;99.90;13.00;102405.00;;;;5035085;28;20641;-66
2023/04/04 18:51:11;;;;;;;0.37;0.37;;;10.00;99.90;13.10;102438.00;;;;5052519;28;20181;-66
2023/04/04 18:54:33;;;;;;;0.10;0.10;;;10.10;99.90;13.00;102390.00;;;;5052185;28;20220;-66
2023/04/04 18:57:53;;;;;;;0.10;0.10;;;10.00;99.90;13.50;102440.00;;;;5041396;28;20208;-66
2023/04/04 19:00:51;;;;;;;1.40;0.77;;;10.10;99.90;12.50;102449.00;;;;5040433;28;20236;-66
2023/04/04 19:04:03;;;;;;;0.10;0.10;;;9.90;99.90;12.50;102459.00;;;;5041125;28;21178;-65
2023/04/04 19:06:56;;;;;;;0.10;0.10;;;9.70;99.90;12.60;102460.00;;;;5038074;28;20214;-68
2023/04/04 19:10:06;;;;;;;0.10;0.10;;;9.80;99.90;12.90;102456.00;;;;5038388;28;20192;-68
2023/04/04 19:13:08;;;;;;;3.30;3.07;;;9.80;99.90;14.00;102436.00;;;;5038565;28;20263;-68
2023/04/04 19:15:58;;;;;;;1.13;0.90;;;10.40;99.90;13.70;102403.00;;;;5039759;28;20215;-68
2023/04/04 19:18:30;;;;;;;0.10;0.10;;;10.40;99.90;14.00;102420.00;;;;5053635;28;20188;-68
2023/04/04 19:21:16;;;;;;;0.10;0.10;;;10.50;99.90;13.10;102454.00;;;;5053690;28;20662;-68
2023/04/04 19:24:17;;;;;;;0.10;0.10;;;10.20;99.90;14.00;102413.00;;;;5052787;28;20183;-68
2023/04/04 19:27:03;;;;;;;0.20;0.20;;;10.10;99.90;13.70;102457.00;;;;5055402;28;20331;-68
2023/04/04 19:29:52;;;;;;;0.10;0.10;;;10.20;99.90;13.10;102471.00;;;;5038786;28;20215;-68
2023/04/04 19:32:48;;;;;;;1.27;1.17;;;10.30;99.90;12.10;102468.00;;;;5053762;28;20220;-68
2023/04/04 19:35:48;;;;;;;0.10;0.10;;;9.80;99.90;12.70;102469.00;;;;5038536;28;20204;-68
2023/04/04 19:38:52;;;;;;;0.10;0.10;;;9.50;99.90;13.00;102454.00;;;;5039183;28;20188;-68
2023/04/04 19:41:35;;;;;;;0.20;0.20;;;9.50;99.90;12.60;102479.00;;;;5039993;28;20195;-68
2023/04/04 19:44:39;;;;;;;0.10;0.10;;;9.50;99.90;12.70;102465.00;;;;5038305;28;20201;-68
2023/04/04 19:48:03;;;;;;;0.10;0.10;;;9.40;99.90;12.30;102472.00;;;;5038125;28;20314;-68
2023/04/04 19:50:55;;;;;;;0.10;0.10;;;9.20;99.90;12.20;102474.00;;;;5039029;28;20664;-67
2023/04/04 19:53:39;;;;;;;0.10;0.10;;;9.00;99.90;11.70;102470.00;;;;5052369;28;20204;-67
2023/04/04 19:56:27;;;;;;;0.30;0.30;;;9.00;99.90;11.60;102485.00;;;;5053130;28;20182;-68
2023/04/04 19:59:38;;;;;;;0.10;0.10;;;8.80;99.90;11.80;102480.00;;;;5053944;28;20240;-68
2023/04/04 20:02:31;;;;;;;0.10;0.10;;;8.70;99.90;12.00;102492.00;;;;4963014;28;20802;-68